sensor_id;sensor_type;location;lat;lon;timestamp;P1;durP1;ratioP1;P2;durP2;ratioP2
15385;SDS011;7791;47.246;9.648;2024-01-30T00:01:40;18.97;;;8.80;;
15385;SDS011;7791;47.246;9.648;2024-01-30T00:04:10;17.17;;;8.00;;
15385;SDS011;7791;47.246;9.648;2024-01-30T00:07:05;18.80;;;8.47;;
15385;SDS011;7791;47.246;9.648;2024-01-30T00:09:39;15.97;;;8.23;;
15385;SDS011;7791;47.246;9.648;2024-01-30T00:12:28;17.50;;;8.33;;
15385;SDS011;7791;47.246;9.648;2024-01-30T00:15:05;21.60;;;9.50;;
15385;SDS011;7791;47.246;9.648;2024-01-30T00:17:39;18.67;;;9.43;;
15385;SDS011;7791;47.246;9.648;2024-01-30T00:20:30;20.20;;;8.70;;
15385;SDS011;7791;47.246;9.648;2024-01-30T00:23:02;18.17;;;8.67;;
15385;SDS011;7791;47.246;9.648;2024-01-30T00:25:32;16.67;;;8.07;;
15385;SDS011;7791;47.246;9.648;2024-01-30T00:28:19;17.40;;;9.50;;
15385;SDS011;7791;47.246;9.648;2024-01-30T00:33:43;18.20;;;8.80;;
15385;SDS011;7791;47.246;9.648;2024-01-30T00:36:26;17.47;;;7.57;;
15385;SDS011;7791;47.246;9.648;2024-01-30T00:38:59;17.77;;;8.37;;
15385;SDS011;7791;47.246;9.648;2024-01-30T00:41:39;19.93;;;8.00;;
15385;SDS011;7791;47.246;9.648;2024-01-30T00:47:06;28.93;;;13.93;;
15385;SDS011;7791;47.246;9.648;2024-01-30T00:49:44;20.63;;;9.17;;
15385;SDS011;7791;47.246;9.648;2024-01-30T00:52:22;17.10;;;8.60;;
15385;SDS011;7791;47.246;9.648;2024-01-30T00:54:57;25.07;;;10.57;;
15385;SDS011;7791;47.246;9.648;2024-01-30T00:57:33;18.03;;;8.33;;
15385;SDS011;7791;47.246;9.648;2024-01-30T01:00:11;20.17;;;8.40;;
15385;SDS011;7791;47.246;9.648;2024-01-30T01:03:03;18.57;;;7.67;;
15385;SDS011;7791;47.246;9.648;2024-01-30T01:05:35;21.47;;;8.87;;
15385;SDS011;7791;47.246;9.648;2024-01-30T01:08:13;16.77;;;8.03;;
15385;SDS011;7791;47.246;9.648;2024-01-30T01:10:49;18.67;;;8.53;;
15385;SDS011;7791;47.246;9.648;2024-01-30T01:13:31;21.17;;;9.37;;
15385;SDS011;7791;47.246;9.648;2024-01-30T01:19:22;19.00;;;8.80;;
15385;SDS011;7791;47.246;9.648;2024-01-30T01:22:26;24.30;;;10.33;;
15385;SDS011;7791;47.246;9.648;2024-01-30T01:24:59;19.87;;;9.17;;
15385;SDS011;7791;47.246;9.648;2024-01-30T01:27:51;18.43;;;8.80;;
15385;SDS011;7791;47.246;9.648;2024-01-30T01:30:24;19.70;;;8.67;;
15385;SDS011;7791;47.246;9.648;2024-01-30T01:33:06;15.90;;;7.23;;
15385;SDS011;7791;47.246;9.648;2024-01-30T01:38:50;21.30;;;9.27;;
15385;SDS011;7791;47.246;9.648;2024-01-30T01:41:38;18.63;;;8.57;;
15385;SDS011;7791;47.246;9.648;2024-01-30T01:44:20;18.20;;;8.90;;
15385;SDS011;7791;47.246;9.648;2024-01-30T01:49:48;19.77;;;9.03;;
15385;SDS011;7791;47.246;9.648;2024-01-30T01:52:19;18.30;;;8.90;;
15385;SDS011;7791;47.246;9.648;2024-01-30T01:55:01;15.63;;;7.90;;
15385;SDS011;7791;47.246;9.648;2024-01-30T01:57:36;19.30;;;8.43;;
15385;SDS011;7791;47.246;9.648;2024-01-30T02:00:23;18.63;;;8.33;;
15385;SDS011;7791;47.246;9.648;2024-01-30T02:06:10;17.00;;;8.43;;
15385;SDS011;7791;47.246;9.648;2024-01-30T02:08:55;20.20;;;7.97;;
15385;SDS011;7791;47.246;9.648;2024-01-30T02:11:56;19.20;;;8.30;;
15385;SDS011;7791;47.246;9.648;2024-01-30T02:14:33;16.13;;;8.03;;
15385;SDS011;7791;47.246;9.648;2024-01-30T02:17:18;17.37;;;7.50;;
15385;SDS011;7791;47.246;9.648;2024-01-30T02:20:18;18.03;;;8.07;;
15385;SDS011;7791;47.246;9.648;2024-01-30T02:23:01;13.90;;;6.83;;
15385;SDS011;7791;47.246;9.648;2024-01-30T02:25:38;15.20;;;7.30;;
15385;SDS011;7791;47.246;9.648;2024-01-30T02:28:51;19.07;;;7.67;;
15385;SDS011;7791;47.246;9.648;2024-01-30T02:31:26;17.17;;;7.90;;
15385;SDS011;7791;47.246;9.648;2024-01-30T02:34:06;17.30;;;7.57;;
15385;SDS011;7791;47.246;9.648;2024-01-30T02:36:48;13.33;;;7.10;;
15385;SDS011;7791;47.246;9.648;2024-01-30T02:42:28;17.40;;;7.07;;
15385;SDS011;7791;47.246;9.648;2024-01-30T02:45:19;17.63;;;7.67;;
15385;SDS011;7791;47.246;9.648;2024-01-30T02:47:54;18.03;;;6.83;;
15385;SDS011;7791;47.246;9.648;2024-01-30T02:50:33;15.10;;;7.37;;
15385;SDS011;7791;47.246;9.648;2024-01-30T02:53:15;16.77;;;7.37;;
15385;SDS011;7791;47.246;9.648;2024-01-30T02:55:57;15.13;;;7.23;;
15385;SDS011;7791;47.246;9.648;2024-01-30T02:58:30;18.73;;;7.97;;
15385;SDS011;7791;47.246;9.648;2024-01-30T03:01:11;14.67;;;6.80;;
15385;SDS011;7791;47.246;9.648;2024-01-30T03:06:58;14.50;;;7.03;;
15385;SDS011;7791;47.246;9.648;2024-01-30T03:12:24;16.73;;;8.30;;
15385;SDS011;7791;47.246;9.648;2024-01-30T03:18:07;14.90;;;7.67;;
15385;SDS011;7791;47.246;9.648;2024-01-30T03:20:45;16.30;;;7.57;;
15385;SDS011;7791;47.246;9.648;2024-01-30T03:23:21;17.70;;;7.10;;
15385;SDS011;7791;47.246;9.648;2024-01-30T03:25:54;17.20;;;7.43;;
15385;SDS011;7791;47.246;9.648;2024-01-30T03:28:27;16.43;;;7.43;;
15385;SDS011;7791;47.246;9.648;2024-01-30T03:34:04;16.83;;;7.00;;
15385;SDS011;7791;47.246;9.648;2024-01-30T03:36:45;13.17;;;7.00;;
15385;SDS011;7791;47.246;9.648;2024-01-30T03:47:40;14.63;;;7.13;;
15385;SDS011;7791;47.246;9.648;2024-01-30T03:53:19;15.83;;;6.53;;
15385;SDS011;7791;47.246;9.648;2024-01-30T03:55:57;16.30;;;6.17;;
15385;SDS011;7791;47.246;9.648;2024-01-30T03:58:38;14.57;;;6.70;;
15385;SDS011;7791;47.246;9.648;2024-01-30T04:01:27;14.17;;;6.50;;
15385;SDS011;7791;47.246;9.648;2024-01-30T04:04:23;14.10;;;6.53;;
15385;SDS011;7791;47.246;9.648;2024-01-30T04:06:58;15.30;;;6.63;;
15385;SDS011;7791;47.246;9.648;2024-01-30T04:09:45;16.53;;;7.30;;
15385;SDS011;7791;47.246;9.648;2024-01-30T04:18:12;14.83;;;7.27;;
15385;SDS011;7791;47.246;9.648;2024-01-30T04:23:50;11.53;;;5.90;;
15385;SDS011;7791;47.246;9.648;2024-01-30T04:26:19;12.83;;;6.33;;
15385;SDS011;7791;47.246;9.648;2024-01-30T04:28:55;12.37;;;5.83;;
15385;SDS011;7791;47.246;9.648;2024-01-30T04:31:47;15.93;;;6.30;;
15385;SDS011;7791;47.246;9.648;2024-01-30T04:34:16;15.10;;;5.80;;
15385;SDS011;7791;47.246;9.648;2024-01-30T04:36:58;19.30;;;7.03;;
15385;SDS011;7791;47.246;9.648;2024-01-30T04:39:35;14.40;;;6.83;;
15385;SDS011;7791;47.246;9.648;2024-01-30T04:42:10;16.07;;;6.57;;
15385;SDS011;7791;47.246;9.648;2024-01-30T04:45:02;14.33;;;7.00;;
15385;SDS011;7791;47.246;9.648;2024-01-30T04:47:50;12.50;;;6.40;;
15385;SDS011;7791;47.246;9.648;2024-01-30T04:50:26;14.63;;;6.77;;
15385;SDS011;7791;47.246;9.648;2024-01-30T04:53:21;17.47;;;6.90;;
15385;SDS011;7791;47.246;9.648;2024-01-30T04:58:53;15.30;;;6.27;;
15385;SDS011;7791;47.246;9.648;2024-01-30T05:01:35;15.70;;;6.17;;
15385;SDS011;7791;47.246;9.648;2024-01-30T05:04:08;17.90;;;6.40;;
15385;SDS011;7791;47.246;9.648;2024-01-30T05:09:51;16.60;;;7.10;;
15385;SDS011;7791;47.246;9.648;2024-01-30T05:12:30;14.20;;;6.40;;
15385;SDS011;7791;47.246;9.648;2024-01-30T05:15:02;14.13;;;6.73;;
15385;SDS011;7791;47.246;9.648;2024-01-30T05:17:48;11.47;;;6.03;;
15385;SDS011;7791;47.246;9.648;2024-01-30T05:20:23;14.33;;;6.50;;
15385;SDS011;7791;47.246;9.648;2024-01-30T05:22:56;13.77;;;6.37;;
15385;SDS011;7791;47.246;9.648;2024-01-30T05:25:34;12.17;;;6.83;;
15385;SDS011;7791;47.246;9.648;2024-01-30T05:28:11;15.80;;;6.40;;
15385;SDS011;7791;47.246;9.648;2024-01-30T05:30:47;11.20;;;5.77;;
15385;SDS011;7791;47.246;9.648;2024-01-30T05:33:25;16.33;;;6.00;;
15385;SDS011;7791;47.246;9.648;2024-01-30T05:36:05;13.07;;;6.23;;
15385;SDS011;7791;47.246;9.648;2024-01-30T05:38:43;14.80;;;6.37;;
15385;SDS011;7791;47.246;9.648;2024-01-30T05:41:27;12.67;;;6.13;;
15385;SDS011;7791;47.246;9.648;2024-01-30T05:44:03;17.23;;;7.10;;
15385;SDS011;7791;47.246;9.648;2024-01-30T05:49:44;16.67;;;6.27;;
15385;SDS011;7791;47.246;9.648;2024-01-30T05:52:26;13.30;;;6.67;;
15385;SDS011;7791;47.246;9.648;2024-01-30T05:55:14;12.03;;;6.40;;
15385;SDS011;7791;47.246;9.648;2024-01-30T05:58:01;23.33;;;8.40;;
15385;SDS011;7791;47.246;9.648;2024-01-30T06:00:43;14.67;;;6.20;;
15385;SDS011;7791;47.246;9.648;2024-01-30T06:03:18;16.27;;;6.57;;
15385;SDS011;7791;47.246;9.648;2024-01-30T06:06:21;16.17;;;6.57;;
15385;SDS011;7791;47.246;9.648;2024-01-30T06:11:59;18.47;;;7.57;;
15385;SDS011;7791;47.246;9.648;2024-01-30T06:14:45;18.77;;;7.70;;
15385;SDS011;7791;47.246;9.648;2024-01-30T06:17:30;17.87;;;7.77;;
15385;SDS011;7791;47.246;9.648;2024-01-30T06:20:12;15.53;;;7.20;;
15385;SDS011;7791;47.246;9.648;2024-01-30T06:23:00;15.93;;;7.53;;
15385;SDS011;7791;47.246;9.648;2024-01-30T06:25:32;20.00;;;8.50;;
15385;SDS011;7791;47.246;9.648;2024-01-30T06:28:09;15.53;;;7.30;;
15385;SDS011;7791;47.246;9.648;2024-01-30T06:34:01;17.77;;;7.40;;
15385;SDS011;7791;47.246;9.648;2024-01-30T06:36:49;15.07;;;6.90;;
15385;SDS011;7791;47.246;9.648;2024-01-30T06:39:26;18.23;;;8.17;;
15385;SDS011;7791;47.246;9.648;2024-01-30T06:42:14;54.50;;;19.57;;
15385;SDS011;7791;47.246;9.648;2024-01-30T06:44:50;31.73;;;13.57;;
15385;SDS011;7791;47.246;9.648;2024-01-30T06:50:13;29.23;;;11.23;;
15385;SDS011;7791;47.246;9.648;2024-01-30T06:52:45;29.00;;;12.73;;
15385;SDS011;7791;47.246;9.648;2024-01-30T06:58:17;24.77;;;9.70;;
15385;SDS011;7791;47.246;9.648;2024-01-30T07:01:09;18.10;;;8.00;;
15385;SDS011;7791;47.246;9.648;2024-01-30T07:06:25;17.97;;;8.60;;
15385;SDS011;7791;47.246;9.648;2024-01-30T07:09:06;16.63;;;7.97;;
15385;SDS011;7791;47.246;9.648;2024-01-30T07:11:41;16.10;;;7.80;;
15385;SDS011;7791;47.246;9.648;2024-01-30T07:14:12;18.63;;;8.63;;
15385;SDS011;7791;47.246;9.648;2024-01-30T07:16:49;16.10;;;7.90;;
15385;SDS011;7791;47.246;9.648;2024-01-30T07:19:41;17.27;;;8.23;;
15385;SDS011;7791;47.246;9.648;2024-01-30T07:22:14;18.03;;;8.97;;
15385;SDS011;7791;47.246;9.648;2024-01-30T07:24:50;21.30;;;9.67;;
15385;SDS011;7791;47.246;9.648;2024-01-30T07:27:25;18.00;;;8.83;;
15385;SDS011;7791;47.246;9.648;2024-01-30T07:29:55;16.83;;;8.47;;
15385;SDS011;7791;47.246;9.648;2024-01-30T07:32:29;19.93;;;8.83;;
15385;SDS011;7791;47.246;9.648;2024-01-30T07:35:02;19.87;;;10.43;;
15385;SDS011;7791;47.246;9.648;2024-01-30T07:37:54;19.83;;;10.63;;
15385;SDS011;7791;47.246;9.648;2024-01-30T07:43:43;23.27;;;11.77;;
15385;SDS011;7791;47.246;9.648;2024-01-30T07:46:43;31.73;;;13.80;;
15385;SDS011;7791;47.246;9.648;2024-01-30T07:49:13;29.40;;;13.10;;
15385;SDS011;7791;47.246;9.648;2024-01-30T07:51:41;33.10;;;15.43;;
15385;SDS011;7791;47.246;9.648;2024-01-30T07:54:17;25.97;;;12.37;;
15385;SDS011;7791;47.246;9.648;2024-01-30T07:56:53;20.23;;;11.73;;
15385;SDS011;7791;47.246;9.648;2024-01-30T07:59:38;22.27;;;12.00;;
15385;SDS011;7791;47.246;9.648;2024-01-30T08:02:12;23.10;;;12.63;;
15385;SDS011;7791;47.246;9.648;2024-01-30T08:04:49;25.77;;;13.53;;
15385;SDS011;7791;47.246;9.648;2024-01-30T08:07:26;25.20;;;14.93;;
15385;SDS011;7791;47.246;9.648;2024-01-30T08:10:02;33.83;;;17.27;;
15385;SDS011;7791;47.246;9.648;2024-01-30T08:12:47;33.17;;;16.43;;
15385;SDS011;7791;47.246;9.648;2024-01-30T08:15:22;33.60;;;17.37;;
15385;SDS011;7791;47.246;9.648;2024-01-30T08:18:01;37.27;;;16.27;;
15385;SDS011;7791;47.246;9.648;2024-01-30T08:23:30;39.97;;;19.77;;
15385;SDS011;7791;47.246;9.648;2024-01-30T08:26:06;35.03;;;19.17;;
15385;SDS011;7791;47.246;9.648;2024-01-30T08:34:21;30.97;;;15.90;;
15385;SDS011;7791;47.246;9.648;2024-01-30T08:37:00;29.43;;;16.10;;
15385;SDS011;7791;47.246;9.648;2024-01-30T08:39:48;28.30;;;15.40;;
15385;SDS011;7791;47.246;9.648;2024-01-30T08:42:31;25.20;;;13.73;;
15385;SDS011;7791;47.246;9.648;2024-01-30T08:45:13;31.87;;;15.93;;
15385;SDS011;7791;47.246;9.648;2024-01-30T08:47:48;26.27;;;14.37;;
15385;SDS011;7791;47.246;9.648;2024-01-30T08:50:30;24.80;;;13.87;;
15385;SDS011;7791;47.246;9.648;2024-01-30T08:53:17;23.27;;;12.00;;
15385;SDS011;7791;47.246;9.648;2024-01-30T08:56:01;16.73;;;9.30;;
15385;SDS011;7791;47.246;9.648;2024-01-30T08:58:41;22.50;;;12.73;;
15385;SDS011;7791;47.246;9.648;2024-01-30T09:01:41;25.27;;;13.00;;
15385;SDS011;7791;47.246;9.648;2024-01-30T09:04:23;24.60;;;13.37;;
15385;SDS011;7791;47.246;9.648;2024-01-30T09:07:02;24.80;;;13.87;;
15385;SDS011;7791;47.246;9.648;2024-01-30T09:09:56;21.77;;;11.50;;
15385;SDS011;7791;47.246;9.648;2024-01-30T09:12:33;21.27;;;11.93;;
15385;SDS011;7791;47.246;9.648;2024-01-30T09:15:09;19.83;;;11.13;;
15385;SDS011;7791;47.246;9.648;2024-01-30T09:20:46;21.87;;;13.53;;
15385;SDS011;7791;47.246;9.648;2024-01-30T09:23:26;20.67;;;12.67;;
15385;SDS011;7791;47.246;9.648;2024-01-30T09:26:18;21.53;;;12.43;;
15385;SDS011;7791;47.246;9.648;2024-01-30T09:28:53;19.90;;;12.83;;
15385;SDS011;7791;47.246;9.648;2024-01-30T09:31:46;20.37;;;13.00;;
15385;SDS011;7791;47.246;9.648;2024-01-30T09:34:40;17.50;;;11.23;;
15385;SDS011;7791;47.246;9.648;2024-01-30T09:37:38;21.97;;;12.23;;
15385;SDS011;7791;47.246;9.648;2024-01-30T09:40:16;19.83;;;11.00;;
15385;SDS011;7791;47.246;9.648;2024-01-30T09:42:50;18.03;;;11.07;;
15385;SDS011;7791;47.246;9.648;2024-01-30T09:48:29;15.83;;;8.90;;
15385;SDS011;7791;47.246;9.648;2024-01-30T09:51:13;15.17;;;8.73;;
15385;SDS011;7791;47.246;9.648;2024-01-30T09:53:53;18.17;;;8.93;;
15385;SDS011;7791;47.246;9.648;2024-01-30T09:56:27;14.13;;;8.20;;
15385;SDS011;7791;47.246;9.648;2024-01-30T09:59:03;12.73;;;8.30;;
15385;SDS011;7791;47.246;9.648;2024-01-30T10:01:42;11.40;;;7.77;;
15385;SDS011;7791;47.246;9.648;2024-01-30T10:10:29;13.77;;;9.23;;
15385;SDS011;7791;47.246;9.648;2024-01-30T10:13:11;17.63;;;9.27;;
15385;SDS011;7791;47.246;9.648;2024-01-30T10:15:57;18.03;;;9.43;;
15385;SDS011;7791;47.246;9.648;2024-01-30T10:18:33;13.70;;;9.17;;
15385;SDS011;7791;47.246;9.648;2024-01-30T10:21:18;15.50;;;8.83;;
15385;SDS011;7791;47.246;9.648;2024-01-30T10:23:57;16.80;;;9.97;;
15385;SDS011;7791;47.246;9.648;2024-01-30T10:26:30;17.17;;;9.27;;
15385;SDS011;7791;47.246;9.648;2024-01-30T10:29:14;15.00;;;8.43;;
15385;SDS011;7791;47.246;9.648;2024-01-30T10:37:47;13.57;;;7.47;;
15385;SDS011;7791;47.246;9.648;2024-01-30T10:40:26;14.90;;;6.97;;
15385;SDS011;7791;47.246;9.648;2024-01-30T10:45:55;10.33;;;6.33;;
15385;SDS011;7791;47.246;9.648;2024-01-30T10:48:35;9.53;;;6.50;;
15385;SDS011;7791;47.246;9.648;2024-01-30T10:51:29;10.17;;;6.50;;
15385;SDS011;7791;47.246;9.648;2024-01-30T10:54:17;10.87;;;6.67;;
15385;SDS011;7791;47.246;9.648;2024-01-30T10:56:50;11.00;;;6.93;;
15385;SDS011;7791;47.246;9.648;2024-01-30T10:59:42;11.10;;;6.70;;
15385;SDS011;7791;47.246;9.648;2024-01-30T11:02:16;10.93;;;7.67;;
15385;SDS011;7791;47.246;9.648;2024-01-30T11:04:56;12.33;;;7.37;;
15385;SDS011;7791;47.246;9.648;2024-01-30T11:07:40;14.93;;;8.70;;
15385;SDS011;7791;47.246;9.648;2024-01-30T11:10:09;12.63;;;8.13;;
15385;SDS011;7791;47.246;9.648;2024-01-30T11:12:58;21.23;;;10.33;;
15385;SDS011;7791;47.246;9.648;2024-01-30T11:15:45;14.33;;;8.83;;
15385;SDS011;7791;47.246;9.648;2024-01-30T11:18:31;18.13;;;10.37;;
15385;SDS011;7791;47.246;9.648;2024-01-30T11:21:16;12.93;;;7.90;;
15385;SDS011;7791;47.246;9.648;2024-01-30T11:24:02;12.23;;;7.80;;
15385;SDS011;7791;47.246;9.648;2024-01-30T11:26:44;10.80;;;7.83;;
15385;SDS011;7791;47.246;9.648;2024-01-30T11:29:24;15.37;;;7.97;;
15385;SDS011;7791;47.246;9.648;2024-01-30T11:32:04;14.57;;;8.57;;
15385;SDS011;7791;47.246;9.648;2024-01-30T11:34:52;12.57;;;8.37;;
15385;SDS011;7791;47.246;9.648;2024-01-30T11:38:23;11.57;;;7.33;;
15385;SDS011;7791;47.246;9.648;2024-01-30T11:40:21;12.30;;;7.47;;
15385;SDS011;7791;47.246;9.648;2024-01-30T11:42:52;11.37;;;7.27;;
15385;SDS011;7791;47.246;9.648;2024-01-30T11:45:41;12.93;;;7.20;;
15385;SDS011;7791;47.246;9.648;2024-01-30T11:51:21;10.23;;;6.83;;
15385;SDS011;7791;47.246;9.648;2024-01-30T11:53:57;12.17;;;6.67;;
15385;SDS011;7791;47.246;9.648;2024-01-30T11:56:37;13.00;;;7.17;;
15385;SDS011;7791;47.246;9.648;2024-01-30T11:59:14;9.57;;;5.67;;
15385;SDS011;7791;47.246;9.648;2024-01-30T12:02:17;7.83;;;5.60;;
15385;SDS011;7791;47.246;9.648;2024-01-30T12:05:00;9.77;;;5.50;;
15385;SDS011;7791;47.246;9.648;2024-01-30T12:07:49;8.33;;;5.03;;
15385;SDS011;7791;47.246;9.648;2024-01-30T12:10:24;11.00;;;6.37;;
15385;SDS011;7791;47.246;9.648;2024-01-30T12:13:04;13.27;;;6.43;;
15385;SDS011;7791;47.246;9.648;2024-01-30T12:15:57;10.33;;;6.93;;
15385;SDS011;7791;47.246;9.648;2024-01-30T12:18:48;11.70;;;6.67;;
15385;SDS011;7791;47.246;9.648;2024-01-30T12:21:29;11.40;;;7.07;;
15385;SDS011;7791;47.246;9.648;2024-01-30T12:24:13;11.97;;;7.50;;
15385;SDS011;7791;47.246;9.648;2024-01-30T12:26:56;11.97;;;7.33;;
15385;SDS011;7791;47.246;9.648;2024-01-30T12:29:27;14.70;;;8.20;;
15385;SDS011;7791;47.246;9.648;2024-01-30T12:32:16;15.17;;;8.10;;
15385;SDS011;7791;47.246;9.648;2024-01-30T12:35:00;11.63;;;7.40;;
15385;SDS011;7791;47.246;9.648;2024-01-30T12:37:46;14.17;;;7.90;;
15385;SDS011;7791;47.246;9.648;2024-01-30T12:40:29;14.60;;;8.43;;
15385;SDS011;7791;47.246;9.648;2024-01-30T12:43:22;14.23;;;7.97;;
15385;SDS011;7791;47.246;9.648;2024-01-30T12:45:59;12.80;;;7.17;;
15385;SDS011;7791;47.246;9.648;2024-01-30T12:48:32;17.20;;;7.73;;
15385;SDS011;7791;47.246;9.648;2024-01-30T12:54:08;14.07;;;6.50;;
15385;SDS011;7791;47.246;9.648;2024-01-30T12:56:49;11.40;;;6.50;;
15385;SDS011;7791;47.246;9.648;2024-01-30T12:59:34;12.10;;;6.10;;
15385;SDS011;7791;47.246;9.648;2024-01-30T13:02:09;11.77;;;6.63;;
15385;SDS011;7791;47.246;9.648;2024-01-30T13:04:51;12.50;;;6.37;;
15385;SDS011;7791;47.246;9.648;2024-01-30T13:07:32;13.50;;;7.20;;
15385;SDS011;7791;47.246;9.648;2024-01-30T13:12:52;10.83;;;6.90;;
15385;SDS011;7791;47.246;9.648;2024-01-30T13:15:38;11.63;;;6.60;;
15385;SDS011;7791;47.246;9.648;2024-01-30T13:18:31;12.37;;;7.43;;
15385;SDS011;7791;47.246;9.648;2024-01-30T13:21:04;10.97;;;7.23;;
15385;SDS011;7791;47.246;9.648;2024-01-30T13:23:49;12.17;;;7.10;;
15385;SDS011;7791;47.246;9.648;2024-01-30T13:26:21;12.00;;;7.47;;
15385;SDS011;7791;47.246;9.648;2024-01-30T13:28:59;10.27;;;7.13;;
15385;SDS011;7791;47.246;9.648;2024-01-30T13:31:40;9.10;;;6.53;;
15385;SDS011;7791;47.246;9.648;2024-01-30T13:34:19;13.87;;;7.20;;
15385;SDS011;7791;47.246;9.648;2024-01-30T13:39:59;15.17;;;8.17;;
15385;SDS011;7791;47.246;9.648;2024-01-30T13:42:37;12.47;;;8.07;;
15385;SDS011;7791;47.246;9.648;2024-01-30T13:45:20;14.90;;;8.07;;
15385;SDS011;7791;47.246;9.648;2024-01-30T13:48:11;15.37;;;8.30;;
15385;SDS011;7791;47.246;9.648;2024-01-30T13:50:52;14.07;;;8.50;;
15385;SDS011;7791;47.246;9.648;2024-01-30T13:53:31;14.07;;;9.03;;
15385;SDS011;7791;47.246;9.648;2024-01-30T13:56:12;12.73;;;8.30;;
15385;SDS011;7791;47.246;9.648;2024-01-30T13:58:48;13.57;;;8.63;;
15385;SDS011;7791;47.246;9.648;2024-01-30T14:01:24;14.63;;;8.80;;
15385;SDS011;7791;47.246;9.648;2024-01-30T14:03:57;16.60;;;9.20;;
15385;SDS011;7791;47.246;9.648;2024-01-30T14:06:32;11.73;;;8.10;;
15385;SDS011;7791;47.246;9.648;2024-01-30T14:09:11;13.30;;;8.93;;
15385;SDS011;7791;47.246;9.648;2024-01-30T14:12:00;15.07;;;9.60;;
15385;SDS011;7791;47.246;9.648;2024-01-30T14:14:56;14.20;;;8.40;;
15385;SDS011;7791;47.246;9.648;2024-01-30T14:17:37;18.30;;;8.53;;
15385;SDS011;7791;47.246;9.648;2024-01-30T14:20:27;13.00;;;8.53;;
15385;SDS011;7791;47.246;9.648;2024-01-30T14:23:21;14.90;;;8.20;;
15385;SDS011;7791;47.246;9.648;2024-01-30T14:26:00;14.53;;;9.17;;
15385;SDS011;7791;47.246;9.648;2024-01-30T14:28:36;15.43;;;8.67;;
15385;SDS011;7791;47.246;9.648;2024-01-30T14:31:17;17.13;;;8.80;;
15385;SDS011;7791;47.246;9.648;2024-01-30T14:33:56;14.87;;;8.80;;
15385;SDS011;7791;47.246;9.648;2024-01-30T14:36:42;14.67;;;9.03;;
15385;SDS011;7791;47.246;9.648;2024-01-30T14:39:22;14.00;;;8.83;;
15385;SDS011;7791;47.246;9.648;2024-01-30T14:41:57;13.83;;;9.00;;
15385;SDS011;7791;47.246;9.648;2024-01-30T14:47:23;13.37;;;8.20;;
15385;SDS011;7791;47.246;9.648;2024-01-30T14:49:58;14.40;;;8.57;;
15385;SDS011;7791;47.246;9.648;2024-01-30T14:52:46;12.20;;;7.83;;
15385;SDS011;7791;47.246;9.648;2024-01-30T14:58:13;15.73;;;7.77;;
15385;SDS011;7791;47.246;9.648;2024-01-30T15:00:53;13.33;;;8.27;;
15385;SDS011;7791;47.246;9.648;2024-01-30T15:03:39;15.90;;;8.13;;
15385;SDS011;7791;47.246;9.648;2024-01-30T15:06:09;16.27;;;8.60;;
15385;SDS011;7791;47.246;9.648;2024-01-30T15:08:48;15.27;;;8.20;;
15385;SDS011;7791;47.246;9.648;2024-01-30T15:11:39;16.30;;;9.50;;
15385;SDS011;7791;47.246;9.648;2024-01-30T15:14:15;10.67;;;7.93;;
15385;SDS011;7791;47.246;9.648;2024-01-30T15:19:57;18.03;;;8.83;;
15385;SDS011;7791;47.246;9.648;2024-01-30T15:22:30;15.53;;;9.00;;
15385;SDS011;7791;47.246;9.648;2024-01-30T15:25:23;13.67;;;8.67;;
15385;SDS011;7791;47.246;9.648;2024-01-30T15:28:12;17.67;;;9.77;;
15385;SDS011;7791;47.246;9.648;2024-01-30T15:30:52;16.63;;;9.63;;
15385;SDS011;7791;47.246;9.648;2024-01-30T15:33:32;14.77;;;8.87;;
15385;SDS011;7791;47.246;9.648;2024-01-30T15:36:19;16.23;;;9.03;;
15385;SDS011;7791;47.246;9.648;2024-01-30T15:38:56;15.67;;;8.60;;
15385;SDS011;7791;47.246;9.648;2024-01-30T15:41:40;12.20;;;7.83;;
15385;SDS011;7791;47.246;9.648;2024-01-30T15:44:19;16.40;;;9.03;;
15385;SDS011;7791;47.246;9.648;2024-01-30T15:46:55;15.90;;;8.50;;
15385;SDS011;7791;47.246;9.648;2024-01-30T15:49:28;15.23;;;8.60;;
15385;SDS011;7791;47.246;9.648;2024-01-30T15:51:58;18.37;;;9.60;;
15385;SDS011;7791;47.246;9.648;2024-01-30T15:54:36;17.40;;;9.17;;
15385;SDS011;7791;47.246;9.648;2024-01-30T15:57:27;58.93;;;25.87;;
15385;SDS011;7791;47.246;9.648;2024-01-30T16:00:08;45.80;;;19.93;;
15385;SDS011;7791;47.246;9.648;2024-01-30T16:02:52;20.83;;;11.00;;
15385;SDS011;7791;47.246;9.648;2024-01-30T16:05:28;29.60;;;16.13;;
15385;SDS011;7791;47.246;9.648;2024-01-30T16:08:16;27.07;;;14.63;;
15385;SDS011;7791;47.246;9.648;2024-01-30T16:10:46;22.00;;;11.60;;
15385;SDS011;7791;47.246;9.648;2024-01-30T16:19:10;16.97;;;9.80;;
15385;SDS011;7791;47.246;9.648;2024-01-30T16:22:03;18.97;;;10.13;;
15385;SDS011;7791;47.246;9.648;2024-01-30T16:24:51;17.57;;;9.47;;
15385;SDS011;7791;47.246;9.648;2024-01-30T16:30:42;19.40;;;10.63;;
15385;SDS011;7791;47.246;9.648;2024-01-30T16:33:39;18.67;;;10.07;;
15385;SDS011;7791;47.246;9.648;2024-01-30T16:36:03;31.30;;;16.23;;
15385;SDS011;7791;47.246;9.648;2024-01-30T16:38:42;30.23;;;16.50;;
15385;SDS011;7791;47.246;9.648;2024-01-30T16:41:27;74.00;;;30.20;;
15385;SDS011;7791;47.246;9.648;2024-01-30T16:44:01;55.83;;;24.83;;
15385;SDS011;7791;47.246;9.648;2024-01-30T16:46:29;52.97;;;26.23;;
15385;SDS011;7791;47.246;9.648;2024-01-30T16:49:20;42.93;;;21.97;;
15385;SDS011;7791;47.246;9.648;2024-01-30T16:51:53;47.77;;;23.67;;
15385;SDS011;7791;47.246;9.648;2024-01-30T16:54:32;53.00;;;23.73;;
15385;SDS011;7791;47.246;9.648;2024-01-30T16:57:39;30.90;;;16.47;;
15385;SDS011;7791;47.246;9.648;2024-01-30T17:00:20;34.43;;;17.07;;
15385;SDS011;7791;47.246;9.648;2024-01-30T17:02:52;37.37;;;17.43;;
15385;SDS011;7791;47.246;9.648;2024-01-30T17:05:27;38.90;;;17.60;;
15385;SDS011;7791;47.246;9.648;2024-01-30T17:08:20;34.10;;;16.73;;
15385;SDS011;7791;47.246;9.648;2024-01-30T17:10:57;31.43;;;15.43;;
15385;SDS011;7791;47.246;9.648;2024-01-30T17:19:19;55.77;;;24.87;;
15385;SDS011;7791;47.246;9.648;2024-01-30T17:21:57;80.00;;;33.30;;
15385;SDS011;7791;47.246;9.648;2024-01-30T17:24:33;81.17;;;33.37;;
15385;SDS011;7791;47.246;9.648;2024-01-30T17:27:12;90.97;;;36.43;;
15385;SDS011;7791;47.246;9.648;2024-01-30T17:29:41;47.33;;;23.07;;
15385;SDS011;7791;47.246;9.648;2024-01-30T17:32:22;41.03;;;18.93;;
15385;SDS011;7791;47.246;9.648;2024-01-30T17:35:03;49.67;;;23.87;;
15385;SDS011;7791;47.246;9.648;2024-01-30T17:40:40;45.50;;;21.20;;
15385;SDS011;7791;47.246;9.648;2024-01-30T17:43:30;48.97;;;22.27;;
15385;SDS011;7791;47.246;9.648;2024-01-30T17:46:16;47.63;;;21.07;;
15385;SDS011;7791;47.246;9.648;2024-01-30T17:49:03;42.30;;;20.30;;
15385;SDS011;7791;47.246;9.648;2024-01-30T17:51:39;44.63;;;20.43;;
15385;SDS011;7791;47.246;9.648;2024-01-30T17:54:20;39.07;;;19.40;;
15385;SDS011;7791;47.246;9.648;2024-01-30T17:56:56;41.13;;;20.23;;
15385;SDS011;7791;47.246;9.648;2024-01-30T17:59:33;45.57;;;22.40;;
15385;SDS011;7791;47.246;9.648;2024-01-30T18:02:27;83.83;;;39.40;;
15385;SDS011;7791;47.246;9.648;2024-01-30T18:04:59;68.83;;;35.43;;
15385;SDS011;7791;47.246;9.648;2024-01-30T18:07:36;78.80;;;40.83;;
15385;SDS011;7791;47.246;9.648;2024-01-30T18:10:07;121.87;;;57.93;;
15385;SDS011;7791;47.246;9.648;2024-01-30T18:12:37;103.43;;;49.17;;
15385;SDS011;7791;47.246;9.648;2024-01-30T18:15:18;75.20;;;33.33;;
15385;SDS011;7791;47.246;9.648;2024-01-30T18:17:53;100.37;;;45.30;;
15385;SDS011;7791;47.246;9.648;2024-01-30T18:20:25;124.70;;;50.20;;
15385;SDS011;7791;47.246;9.648;2024-01-30T18:23:08;81.00;;;35.67;;
15385;SDS011;7791;47.246;9.648;2024-01-30T18:25:39;59.27;;;28.20;;
15385;SDS011;7791;47.246;9.648;2024-01-30T18:28:25;45.03;;;22.23;;
15385;SDS011;7791;47.246;9.648;2024-01-30T18:30:55;36.83;;;19.10;;